createdAt,value
2022-11-07T00:00:16.969Z,95509.78
2022-11-07T00:02:46.447Z,95517.56
2022-11-07T00:05:16.388Z,95512.50
2022-11-07T00:07:45.749Z,95517.34
2022-11-07T00:10:15.216Z,95520.03
2022-11-07T00:12:44.666Z,95521.94
2022-11-07T00:15:15.488Z,95518.72
2022-11-07T00:17:44.873Z,95521.97
2022-11-07T00:20:14.342Z,95526.28
2022-11-07T00:22:43.755Z,95535.94
2022-11-07T00:25:13.185Z,95538.91
2022-11-07T00:27:42.689Z,95553.38
2022-11-07T00:30:15.510Z,95555.81
2022-11-07T00:32:45.000Z,95555.31
2022-11-07T00:35:14.572Z,95552.91
2022-11-07T00:37:43.980Z,95557.19
2022-11-07T00:40:14.076Z,95552.63
2022-11-07T00:42:43.567Z,95555.31
2022-11-07T00:45:13.352Z,95558.03
2022-11-07T00:47:44.103Z,95558.84
2022-11-07T00:50:13.524Z,95558.84
2022-11-07T00:52:42.985Z,95562.59
2022-11-07T00:55:13.013Z,95559.88
2022-11-07T00:57:42.410Z,95563.66
2022-11-07T01:00:14.799Z,95571.75
2022-11-07T01:03:05.527Z,95573.34
2022-11-07T01:05:33.942Z,95579.28
2022-11-07T01:08:03.473Z,95583.59
2022-11-07T01:10:33.416Z,95576.91
2022-11-07T01:13:02.846Z,95585.50
2022-11-07T01:15:32.223Z,95586.00
2022-11-07T01:18:02.991Z,95579.78
2022-11-07T01:20:32.405Z,95586.25
2022-11-07T01:23:01.770Z,95592.97
2022-11-07T01:25:31.303Z,95595.31
2022-11-07T01:28:00.714Z,95593.69
2022-11-07T01:30:30.113Z,95590.69
2022-11-07T01:32:59.770Z,95597.91
2022-11-07T01:35:30.537Z,95601.59
2022-11-07T01:38:00.447Z,95598.66
2022-11-07T01:40:30.645Z,95602.16
2022-11-07T01:43:00.376Z,95606.63
2022-11-07T01:45:32.048Z,95595.66
2022-11-07T01:48:03.339Z,95600.16
2022-11-07T01:50:34.125Z,95599.91
2022-11-07T01:53:03.799Z,95599.66
2022-11-07T01:55:36.651Z,95607.13
2022-11-07T01:58:10.092Z,95605.53
2022-11-07T02:00:40.115Z,95603.97
2022-11-07T02:03:14.039Z,95600.53
2022-11-07T02:05:50.374Z,95604.84
2022-11-07T02:08:20.909Z,95609.13
2022-11-07T02:10:51.004Z,95602.69
2022-11-07T02:13:27.659Z,95605.72
2022-11-07T02:16:01.072Z,95598.78
2022-11-07T02:18:31.919Z,95602.28
2022-11-07T02:21:13.589Z,95590.47
2022-11-07T02:23:52.876Z,95589.97
2022-11-07T02:26:25.651Z,95585.91
2022-11-07T02:28:58.065Z,95586.97
2022-11-07T02:31:27.555Z,95592.34
2022-11-07T02:33:57.063Z,95584.59
2022-11-07T02:36:27.300Z,95586.75
2022-11-07T02:39:00.836Z,95584.88
2022-11-07T02:41:35.668Z,95585.47
2022-11-07T02:44:11.266Z,95589.75
2022-11-07T02:46:41.695Z,95582.22
2022-11-07T02:49:11.100Z,95584.97
2022-11-07T02:51:40.627Z,95583.88
2022-11-07T02:54:10.105Z,95587.41
2022-11-07T02:56:40.892Z,95587.38
2022-11-07T02:59:10.453Z,95589.25
2022-11-07T03:01:40.110Z,95598.13
2022-11-07T03:04:09.931Z,95585.72
2022-11-07T03:06:39.353Z,95594.59
2022-11-07T03:09:08.737Z,95592.16
2022-11-07T03:11:38.116Z,95607.47
2022-11-07T03:14:08.836Z,95609.09
2022-11-07T03:16:38.326Z,95609.66
2022-11-07T03:19:07.703Z,95603.19
2022-11-07T03:21:37.098Z,95603.97
2022-11-07T03:24:07.517Z,95616.06
2022-11-07T03:26:36.911Z,95618.22
2022-11-07T03:29:06.564Z,95619.03
2022-11-07T03:31:37.659Z,95611.72
2022-11-07T03:34:07.023Z,95620.03
2022-11-07T03:36:36.482Z,95614.63
2022-11-07T03:39:05.952Z,95623.44
2022-11-07T03:41:35.363Z,95614.53
2022-11-07T03:44:04.995Z,95608.63
2022-11-07T03:46:35.766Z,95618.00
2022-11-07T03:49:05.407Z,95625.88
2022-11-07T03:51:34.806Z,95627.69
2022-11-07T03:54:04.540Z,95632.50
2022-11-07T03:56:33.955Z,95629.00
2022-11-07T03:59:03.490Z,95634.63
2022-11-07T04:01:33.316Z,95634.59
2022-11-07T04:04:04.248Z,95634.06
2022-11-07T04:06:33.663Z,95633.97
2022-11-07T04:09:03.056Z,95640.09
2022-11-07T04:11:49.843Z,95647.28
2022-11-07T04:14:36.630Z,95642.13
2022-11-07T04:17:20.958Z,95640.41
2022-11-07T04:19:55.938Z,95640.59
2022-11-07T04:22:27.136Z,95640.47
2022-11-07T04:24:56.515Z,95643.94
2022-11-07T04:27:42.928Z,95645.44
2022-11-07T04:30:23.729Z,95649.03
2022-11-07T04:32:55.824Z,95651.06
2022-11-07T04:35:30.216Z,95653.38
2022-11-07T04:38:00.570Z,95649.50
2022-11-07T04:40:31.421Z,95653.97
2022-11-07T04:43:01.011Z,95654.94
2022-11-07T04:45:30.413Z,95660.19
2022-11-07T04:47:59.876Z,95658.94
2022-11-07T04:50:30.703Z,95664.63
2022-11-07T04:53:00.063Z,95655.59
2022-11-07T04:55:31.263Z,95649.28
2022-11-07T04:58:00.667Z,95666.34
2022-11-07T05:00:30.069Z,95667.31
2022-11-07T05:02:59.628Z,95665.69
2022-11-07T05:05:30.672Z,95663.25
2022-11-07T05:08:00.078Z,95673.88
2022-11-07T05:10:31.030Z,95666.00
2022-11-07T05:13:00.437Z,95669.09
2022-11-07T05:15:29.836Z,95676.72
2022-11-07T05:17:59.248Z,95671.19
2022-11-07T05:20:33.826Z,95684.97
2022-11-07T05:23:17.759Z,95687.69
2022-11-07T05:25:50.522Z,95686.63
2022-11-07T05:28:31.190Z,95686.31
2022-11-07T05:31:07.000Z,95696.72
2022-11-07T05:33:36.947Z,95690.31
2022-11-07T05:36:21.149Z,95693.97
2022-11-07T05:38:53.417Z,95692.94
2022-11-07T05:41:23.596Z,95699.13
2022-11-07T05:43:53.003Z,95702.59
2022-11-07T05:46:22.397Z,95691.44
2022-11-07T05:48:56.575Z,95696.94
2022-11-07T05:51:30.417Z,95695.66
2022-11-07T05:53:59.807Z,95703.66
2022-11-07T05:56:29.376Z,95700.84
2022-11-07T05:58:59.078Z,95697.47
2022-11-07T06:01:28.570Z,95698.44
2022-11-07T06:03:58.459Z,95705.03
2022-11-07T06:06:29.353Z,95697.50
2022-11-07T06:08:59.100Z,95702.81
2022-11-07T06:11:28.840Z,95700.16
2022-11-07T06:13:58.300Z,95707.94
2022-11-07T06:16:29.020Z,95715.69
2022-11-07T06:18:58.560Z,95710.38
2022-11-07T06:21:29.606Z,95711.63
2022-11-07T06:24:00.046Z,95713.63
2022-11-07T06:26:29.458Z,95718.97
2022-11-07T06:28:58.845Z,95719.66
2022-11-07T06:31:28.251Z,95716.25
2022-11-07T06:33:57.799Z,95715.31
2022-11-07T06:36:27.283Z,95709.91
2022-11-07T06:38:58.603Z,95722.44
2022-11-07T06:41:28.224Z,95711.78
2022-11-07T06:43:57.790Z,95722.44
2022-11-07T06:46:28.145Z,95725.59
2022-11-07T06:48:57.817Z,95725.44
2022-11-07T06:51:29.388Z,95727.06
2022-11-07T06:54:00.213Z,95734.38
2022-11-07T06:56:29.652Z,95729.59
2022-11-07T06:58:59.006Z,95738.84
2022-11-07T07:01:28.609Z,95737.88
2022-11-07T07:03:59.986Z,95731.50
2022-11-07T07:06:56.045Z,95733.06
2022-11-07T07:09:28.242Z,95732.09
2022-11-07T07:11:57.889Z,95739.38
2022-11-07T07:14:27.430Z,95738.78
2022-11-07T07:16:58.797Z,95739.31
2022-11-07T07:19:30.796Z,95735.34
2022-11-07T07:22:00.303Z,95740.41
2022-11-07T07:24:31.156Z,95740.75
2022-11-07T07:27:00.609Z,95740.16
2022-11-07T07:29:29.986Z,95746.81
2022-11-07T07:31:59.579Z,95753.13
2022-11-07T07:34:29.240Z,95754.59
2022-11-07T07:36:58.665Z,95749.59
2022-11-07T07:39:28.144Z,95738.13
2022-11-07T07:41:58.989Z,95731.88
2022-11-07T07:44:28.502Z,95741.84
2022-11-07T07:46:57.971Z,95746.03
2022-11-07T07:49:27.440Z,95738.06
2022-11-07T07:51:57.559Z,95734.63
2022-11-07T07:54:27.049Z,95740.84
2022-11-07T07:56:57.823Z,95734.47
2022-11-07T07:59:27.342Z,95732.06
2022-11-07T08:01:57.539Z,95742.09
2022-11-07T08:04:27.602Z,95742.94
2022-11-07T08:06:57.193Z,95743.50
2022-11-07T08:09:26.572Z,95743.25
2022-11-07T08:11:55.961Z,95745.44
2022-11-07T08:14:26.686Z,95752.75
2022-11-07T08:16:56.161Z,95748.97
2022-11-07T08:19:26.329Z,95758.16
2022-11-07T08:21:55.743Z,95754.41
2022-11-07T08:24:25.239Z,95750.91
2022-11-07T08:26:54.772Z,95758.19
2022-11-07T08:29:24.164Z,95757.66
2022-11-07T08:31:54.957Z,95757.41
2022-11-07T08:34:24.720Z,95749.88
2022-11-07T08:36:54.260Z,95761.75
2022-11-07T08:39:23.729Z,95758.22
2022-11-07T08:41:55.077Z,95758.25
2022-11-07T08:44:24.515Z,95755.56
2022-11-07T08:46:55.264Z,95757.97
2022-11-07T08:49:24.926Z,95761.47
2022-11-07T08:51:54.375Z,95756.06
2022-11-07T08:54:25.716Z,95762.53
2022-11-07T08:56:55.309Z,95749.34
2022-11-07T08:59:24.719Z,95749.06
2022-11-07T09:02:36.960Z,95763.63
2022-11-07T09:04:45.247Z,95757.94
2022-11-07T09:07:14.810Z,95765.50
2022-11-07T09:09:44.273Z,95758.97
2022-11-07T09:12:13.687Z,95764.91
2022-11-07T09:14:43.067Z,95764.63
2022-11-07T09:17:13.879Z,95764.59
2022-11-07T09:19:43.277Z,95767.25
2022-11-07T09:22:12.724Z,95761.06
2022-11-07T09:24:42.140Z,95759.97
2022-11-07T09:27:11.664Z,95768.00
2022-11-07T09:29:41.219Z,95770.66
2022-11-07T09:32:38.238Z,95764.66
2022-11-07T09:35:04.680Z,95773.53
2022-11-07T09:37:34.608Z,95773.72
2022-11-07T09:40:04.639Z,95776.38
2022-11-07T09:42:47.705Z,95769.34
2022-11-07T09:45:17.886Z,95769.25
2022-11-07T09:47:56.021Z,95771.06
2022-11-07T09:50:35.253Z,95768.84
2022-11-07T09:53:13.614Z,95772.34
2022-11-07T09:55:52.848Z,95767.22
2022-11-07T09:58:32.884Z,95767.97
2022-11-07T10:01:07.707Z,95763.91
2022-11-07T10:03:43.165Z,95763.41
2022-11-07T10:06:28.996Z,95764.84
2022-11-07T10:09:13.143Z,95764.06
2022-11-07T10:11:51.453Z,95771.94
2022-11-07T10:14:35.755Z,95778.13
2022-11-07T10:17:21.738Z,95776.97
2022-11-07T10:20:14.732Z,95772.38
2022-11-07T10:23:09.563Z,95768.22
2022-11-07T10:25:49.486Z,95775.56
2022-11-07T10:28:22.106Z,95770.19
2022-11-07T10:30:55.516Z,95774.50
2022-11-07T10:33:41.118Z,95767.69
2022-11-07T10:36:23.748Z,95768.97
2022-11-07T10:38:55.267Z,95765.69
2022-11-07T10:41:28.186Z,95762.91
2022-11-07T10:44:03.753Z,95769.66
2022-11-07T10:46:41.289Z,95766.91
2022-11-07T10:49:23.009Z,95768.53
2022-11-07T10:51:53.656Z,95759.09
2022-11-07T10:54:31.304Z,95773.66
2022-11-07T10:57:06.965Z,95766.97
2022-11-07T10:59:41.492Z,95774.81
2022-11-07T11:02:23.085Z,95765.97
2022-11-07T11:04:56.158Z,95768.41
2022-11-07T11:07:33.755Z,95765.22
2022-11-07T11:10:20.123Z,95767.88
2022-11-07T11:12:50.906Z,95773.28
2022-11-07T11:15:23.823Z,95778.97
2022-11-07T11:18:03.127Z,95773.06
2022-11-07T11:20:39.816Z,95767.66
2022-11-07T11:23:23.673Z,95770.84
2022-11-07T11:26:03.140Z,95761.13
2022-11-07T11:28:40.965Z,95762.19
2022-11-07T11:31:30.928Z,95751.00
2022-11-07T11:34:11.349Z,95744.34
2022-11-07T11:36:47.042Z,95744.91
2022-11-07T11:39:27.143Z,95745.34
2022-11-07T11:42:00.322Z,95735.63
2022-11-07T11:44:39.474Z,95735.41
2022-11-07T11:47:17.808Z,95731.31
2022-11-07T11:49:52.235Z,95736.16
2022-11-07T11:52:25.894Z,95729.59
2022-11-07T11:54:57.923Z,95727.47
2022-11-07T11:57:40.169Z,95732.56
2022-11-07T12:00:15.685Z,95730.03
2022-11-07T12:03:14.550Z,95711.53
2022-11-07T12:06:13.142Z,95715.00
2022-11-07T12:09:38.363Z,95712.53
2022-11-07T12:12:30.354Z,95718.66
2022-11-07T12:15:30.612Z,95709.03
2022-11-07T12:18:12.016Z,95717.31
2022-11-07T12:20:59.056Z,95712.44
2022-11-07T12:23:49.884Z,95714.63
2022-11-07T12:26:29.529Z,95707.66
2022-11-07T12:29:16.608Z,95706.03
2022-11-07T12:32:08.509Z,95706.88
2022-11-07T12:35:02.737Z,95709.31
2022-11-07T12:38:04.310Z,95696.06
2022-11-07T12:40:49.337Z,95702.00
2022-11-07T12:43:45.923Z,95706.13
2022-11-07T12:46:29.044Z,95712.44
2022-11-07T12:49:40.720Z,95698.81
2022-11-07T12:52:30.396Z,95694.69
2022-11-07T12:55:04.144Z,95700.75
2022-11-07T12:57:57.348Z,95697.81
2022-11-07T13:00:30.443Z,95705.06
2022-11-07T13:03:46.867Z,95706.97
2022-11-07T13:06:26.918Z,95701.31
2022-11-07T13:09:14.427Z,95697.56
2022-11-07T13:11:54.007Z,95700.84
2022-11-07T13:14:33.018Z,95696.72
2022-11-07T13:17:48.021Z,95693.34
2022-11-07T13:23:47.559Z,95704.84
2022-11-07T13:26:46.512Z,95701.56
2022-11-07T13:29:34.165Z,95705.69
2022-11-07T13:32:10.971Z,95707.13
2022-11-07T13:34:51.225Z,95713.00
2022-11-07T13:37:32.126Z,95715.53
2022-11-07T13:40:08.292Z,95714.59
2022-11-07T13:42:37.984Z,95710.50
2022-11-07T13:45:27.931Z,95709.75
2022-11-07T13:48:05.930Z,95708.38
2022-11-07T13:50:50.887Z,95709.94
2022-11-07T13:53:32.268Z,95704.59
2022-11-07T13:56:10.764Z,95713.00
2022-11-07T13:58:42.915Z,95702.72
2022-11-07T14:01:14.671Z,95703.88
2022-11-07T14:03:44.134Z,95699.06
2022-11-07T14:06:15.581Z,95709.06
2022-11-07T14:08:49.397Z,95699.09
2022-11-07T14:11:22.771Z,95700.47
2022-11-07T14:13:55.268Z,95699.81
2022-11-07T14:16:30.573Z,95706.69
2022-11-07T14:19:04.268Z,95705.69
2022-11-07T14:21:37.229Z,95698.16
2022-11-07T14:24:23.157Z,95700.72
2022-11-07T14:27:05.151Z,95701.38
2022-11-07T14:29:34.847Z,95696.06
2022-11-07T14:32:08.300Z,95703.41
2022-11-07T14:34:45.880Z,95703.16
2022-11-07T14:37:21.105Z,95710.31
2022-11-07T14:39:53.279Z,95706.84
2022-11-07T14:42:25.493Z,95697.78
2022-11-07T14:44:57.764Z,95708.97
2022-11-07T14:47:32.381Z,95716.59
2022-11-07T14:50:06.396Z,95706.13
2022-11-07T14:52:42.416Z,95705.66
2022-11-07T14:55:21.585Z,95704.69
2022-11-07T14:57:52.036Z,95711.50
2022-11-07T15:00:24.017Z,95714.50
2022-11-07T15:02:59.216Z,95717.28
2022-11-07T15:05:32.932Z,95720.56
2022-11-07T15:08:02.501Z,95712.50
2022-11-07T15:10:39.551Z,95710.94
2022-11-07T15:13:26.217Z,95709.63
2022-11-07T15:16:05.078Z,95705.06
2022-11-07T15:18:40.526Z,95708.06
2022-11-07T15:21:26.224Z,95707.28
2022-11-07T15:23:55.697Z,95703.78
2022-11-07T15:26:33.021Z,95709.72
2022-11-07T15:29:20.875Z,95707.31
2022-11-07T15:31:50.917Z,95707.84
2022-11-07T15:34:45.204Z,95709.47
2022-11-07T15:37:13.313Z,95707.31
2022-11-07T15:39:42.822Z,95709.22
2022-11-07T15:42:13.672Z,95717.00
2022-11-07T15:44:43.772Z,95717.28
2022-11-07T15:47:20.295Z,95714.28
2022-11-07T15:49:50.354Z,95716.97
2022-11-07T15:52:19.844Z,95716.38
2022-11-07T15:54:49.268Z,95726.00
2022-11-07T15:57:20.849Z,95726.72
2022-11-07T15:59:50.520Z,95728.03
2022-11-07T16:02:20.022Z,95730.91
2022-11-07T16:04:49.564Z,95721.44
2022-11-07T16:07:21.048Z,95720.34
2022-11-07T16:09:50.568Z,95724.31
2022-11-07T16:12:21.408Z,95722.38
2022-11-07T16:14:51.071Z,95733.63
2022-11-07T16:17:21.196Z,95729.03
2022-11-07T16:19:50.595Z,95727.41
2022-11-07T16:22:20.023Z,95722.75
2022-11-07T16:24:49.446Z,95722.97
2022-11-07T16:27:20.706Z,95731.47
2022-11-07T16:29:50.191Z,95732.44
2022-11-07T16:32:19.675Z,95735.31
2022-11-07T16:34:49.166Z,95730.09
2022-11-07T16:37:18.873Z,95731.06
2022-11-07T16:39:48.260Z,95729.59
2022-11-07T16:42:21.548Z,95728.69
2022-11-07T16:44:51.052Z,95731.00
2022-11-07T16:47:20.566Z,95732.31
2022-11-07T16:49:53.524Z,95734.91
2022-11-07T16:52:28.120Z,95741.81
2022-11-07T16:54:57.520Z,95734.00
2022-11-07T16:57:28.411Z,95738.22
2022-11-07T16:59:57.792Z,95737.59
2022-11-07T17:02:28.276Z,95736.16
2022-11-07T17:04:57.722Z,95742.50
2022-11-07T17:07:27.290Z,95745.63
2022-11-07T17:09:56.687Z,95732.97
2022-11-07T17:12:27.896Z,95738.81
2022-11-07T17:14:57.297Z,95736.63
2022-11-07T17:17:26.778Z,95734.44
2022-11-07T17:19:56.169Z,95728.53
2022-11-07T17:22:25.550Z,95734.38
2022-11-07T17:24:54.968Z,95731.66
2022-11-07T17:27:27.204Z,95736.94
2022-11-07T17:29:57.004Z,95738.47
2022-11-07T17:32:26.452Z,95742.44
2022-11-07T17:35:18.232Z,95740.75
2022-11-07T17:37:45.240Z,95741.81
2022-11-07T17:40:22.404Z,95747.06
2022-11-07T17:42:53.155Z,95745.16
2022-11-07T17:45:22.614Z,95743.44
2022-11-07T17:47:52.183Z,95739.06
2022-11-07T17:50:23.784Z,95736.88
2022-11-07T17:52:53.565Z,95739.47
2022-11-07T17:55:24.553Z,95743.94
2022-11-07T17:57:55.583Z,95741.41
2022-11-07T18:00:27.931Z,95733.78
2022-11-07T18:02:57.409Z,95735.78
2022-11-07T18:05:32.842Z,95740.84
2022-11-07T18:08:03.167Z,95733.06
2022-11-07T18:10:32.873Z,95729.00
2022-11-07T18:13:03.631Z,95735.88
2022-11-07T18:15:33.045Z,95739.28
2022-11-07T18:18:06.777Z,95740.94
2022-11-07T18:20:39.135Z,95745.66
2022-11-07T18:23:08.577Z,95735.34
2022-11-07T18:25:38.579Z,95729.88
2022-11-07T18:28:09.315Z,95732.69
2022-11-07T18:30:38.682Z,95733.91
2022-11-07T18:33:08.087Z,95734.63
2022-11-07T18:35:37.503Z,95729.97
2022-11-07T18:38:06.931Z,95728.25
2022-11-07T18:40:36.411Z,95729.19
2022-11-07T18:43:05.804Z,95725.63
2022-11-07T18:45:36.576Z,95731.44
2022-11-07T18:48:06.777Z,95722.84
2022-11-07T18:50:39.867Z,95730.06
2022-11-07T18:53:09.366Z,95729.25
2022-11-07T18:55:38.736Z,95726.00
2022-11-07T18:58:08.321Z,95726.44
2022-11-07T19:00:39.319Z,95722.84
2022-11-07T19:03:08.728Z,95720.06
2022-11-07T19:05:41.182Z,95724.25
2022-11-07T19:08:10.810Z,95718.81
2022-11-07T19:10:40.360Z,95724.63
2022-11-07T19:13:09.768Z,95725.09
2022-11-07T19:15:41.345Z,95724.03
2022-11-07T19:18:10.873Z,95724.50
2022-11-07T19:20:40.714Z,95725.97
2022-11-07T19:23:11.432Z,95726.91
2022-11-07T19:25:41.607Z,95735.25
2022-11-07T19:28:11.452Z,95738.53
2022-11-07T19:30:43.018Z,95740.41
2022-11-07T19:33:13.030Z,95732.59
2022-11-07T19:35:43.373Z,95729.91
2022-11-07T19:38:15.042Z,95721.09
2022-11-07T19:40:50.457Z,95728.09
2022-11-07T19:43:20.106Z,95724.81
2022-11-07T19:45:50.986Z,95725.28
2022-11-07T19:48:20.415Z,95720.41
2022-11-07T19:50:49.820Z,95721.44
2022-11-07T19:53:21.370Z,95725.63
2022-11-07T19:55:50.843Z,95729.34
2022-11-07T19:58:20.255Z,95728.78
2022-11-07T20:00:51.093Z,95735.41
2022-11-07T20:03:21.563Z,95725.53
2022-11-07T20:05:51.808Z,95732.50
2022-11-07T20:08:21.213Z,95731.47
2022-11-07T20:10:51.671Z,95736.56
2022-11-07T20:13:21.160Z,95742.69
2022-11-07T20:15:51.909Z,95740.72
2022-11-07T20:18:21.494Z,95733.63
2022-11-07T20:20:51.184Z,95740.41
2022-11-07T20:23:20.760Z,95742.84
2022-11-07T20:25:50.234Z,95737.38
2022-11-07T20:28:19.676Z,95735.59
2022-11-07T20:30:49.154Z,95735.47
2022-11-07T20:33:20.233Z,95733.34
2022-11-07T20:36:00.718Z,95739.28
2022-11-07T20:38:30.704Z,95734.97
2022-11-07T20:41:00.705Z,95731.50
2022-11-07T20:43:30.613Z,95729.38
2022-11-07T20:46:05.615Z,95733.91
2022-11-07T20:48:37.194Z,95732.34
2022-11-07T20:51:11.110Z,95720.84
2022-11-07T20:53:46.744Z,95727.81
2022-11-07T20:56:19.510Z,95730.59
2022-11-07T20:58:50.064Z,95732.22
2022-11-07T21:01:27.416Z,95734.09
2022-11-07T21:04:00.799Z,95728.50
2022-11-07T21:06:30.463Z,95726.41
2022-11-07T21:08:59.985Z,95720.47
2022-11-07T21:11:31.107Z,95715.38
2022-11-07T21:14:00.797Z,95719.81
2022-11-07T21:16:34.409Z,95718.34
2022-11-07T21:19:06.892Z,95727.19
2022-11-07T21:21:36.252Z,95729.94
2022-11-07T21:24:06.444Z,95732.38
2022-11-07T21:26:39.917Z,95735.59
2022-11-07T21:29:10.955Z,95737.28
2022-11-07T21:31:42.052Z,95733.69
2022-11-07T21:34:12.912Z,95737.03
2022-11-07T21:36:42.596Z,95743.31
2022-11-07T21:39:12.459Z,95737.50
2022-11-07T21:41:41.815Z,95746.44
2022-11-07T21:44:12.623Z,95745.00
2022-11-07T21:46:42.048Z,95743.06
2022-11-07T21:49:12.827Z,95734.81
2022-11-07T21:51:42.456Z,95734.25
2022-11-07T21:54:12.711Z,95736.91
2022-11-07T21:56:42.108Z,95731.78
2022-11-07T21:59:13.330Z,95733.06
2022-11-07T22:01:43.467Z,95727.38
2022-11-07T22:04:14.288Z,95724.94
2022-11-07T22:06:45.760Z,95729.94
2022-11-07T22:09:18.411Z,95737.84
2022-11-07T22:11:47.967Z,95735.06
2022-11-07T22:14:20.949Z,95742.38
2022-11-07T22:16:56.098Z,95744.34
2022-11-07T22:19:27.758Z,95739.97
2022-11-07T22:21:57.125Z,95736.00
2022-11-07T22:24:27.246Z,95737.75
2022-11-07T22:26:57.213Z,95733.69
2022-11-07T22:29:26.728Z,95734.72
2022-11-07T22:31:56.142Z,95726.72
2022-11-07T22:34:27.069Z,95728.59
2022-11-07T22:36:56.471Z,95730.81
2022-11-07T22:39:25.867Z,95727.88
2022-11-07T22:41:55.217Z,95732.16
2022-11-07T22:44:24.667Z,95729.03
2022-11-07T22:46:56.754Z,95725.88
2022-11-07T22:49:27.544Z,95731.75
2022-11-07T22:51:56.959Z,95730.50
2022-11-07T22:54:26.326Z,95733.25
2022-11-07T22:56:55.707Z,95729.84
2022-11-07T22:59:25.090Z,95727.50
2022-11-07T23:01:54.675Z,95729.47
2022-11-07T23:04:26.441Z,95729.09
2022-11-07T23:07:00.801Z,95719.13
2022-11-07T23:09:30.230Z,95718.16
2022-11-07T23:12:00.449Z,95724.38
2022-11-07T23:14:29.954Z,95719.97
2022-11-07T23:16:59.341Z,95722.94
2022-11-07T23:19:28.826Z,95717.69
2022-11-07T23:21:59.306Z,95714.78
2022-11-07T23:24:30.215Z,95710.78
2022-11-07T23:26:59.692Z,95703.69
2022-11-07T23:29:29.132Z,95711.28
2022-11-07T23:31:58.492Z,95718.09
2022-11-07T23:34:29.126Z,95708.69
2022-11-07T23:36:58.692Z,95707.97
2022-11-07T23:39:30.252Z,95704.78
2022-11-07T23:41:59.640Z,95702.78
2022-11-07T23:44:28.990Z,95698.72
2022-11-07T23:47:15.977Z,95695.25
2022-11-07T23:50:02.955Z,95698.72
2022-11-07T23:52:32.319Z,95701.38
2022-11-07T23:55:20.666Z,95690.16
2022-11-07T23:58:07.576Z,95692.81
